Nearby METAR Reports

 

KTAN - Taunton, Massachusetts, USA
Distance from station: W 5mi, 8km
Updated: Tue, 13-Apr-2021 7:52am EDT
Overcast
Overcast
 Wind from varies
Wind: varies 5 mph , 7 km/h
Temperature: 48°F , 9°C
Wind Chill: 46°F , 8°C
Dew Point: 37°F , 3°C
Humidity: 66%
Barometer: 29.98 inHg , 1015.2 hPa
Clouds: Overcast
Visibility: 10 miles , 16 km
Cloud details: Overcast 3400 ft
2021/04/13 11:52 KTAN 131152Z AUTO VRB04KT 10SM OVC034 09/03 A2998 RMK AO2 SLP153 T00890028 10089 20033 51014
KPYM - Plymouth, Massachusetts, USA
Distance from station: ENE 10mi, 16km
Updated: Tue, 13-Apr-2021 7:52am EDT
Overcast
Overcast
 Wind from N
Wind: N 12 mph , 19 km/h, Gust: 23 mph , 37 km/h
Temperature: 46°F , 8°C
Wind Chill: 40°F , 4°C
Dew Point: 37°F , 3°C
Humidity: 71%
Barometer: 29.97 inHg , 1014.9 hPa
Clouds: Overcast
Visibility: 10 miles , 16 km
Cloud details: Overcast 3200 ft
2021/04/13 11:52 KPYM 131152Z AUTO 01010G20KT 10SM OVC032 08/03 A2997 RMK AO2 SLP150 T00830033 10083 20044 53014
 
KEWB - New Bedford, Massachusetts, USA
Distance from station: S 14mi, 23km
Updated: Tue, 13-Apr-2021 7:53am EDT
Overcast
Overcast
 Wind from N
Wind: N 10 mph , 17 km/h
Temperature: 46°F , 8°C
Wind Chill: 41°F , 5°C
Dew Point: 37°F , 3°C
Humidity: 71%
Barometer: 29.97 inHg , 1014.9 hPa
Clouds: Overcast
Visibility: 10 miles , 16 km
Cloud details: Overcast 3300 ft
2021/04/13 11:53 KEWB 131153Z 01009KT 10SM OVC033 08/03 A2997 RMK AO2 SLP149 T00830028 10083 20044 51013
KGHG - Marshfield, Massachusetts, USA
Distance from station: NE 20mi, 31km
Updated: Tue, 13-Apr-2021 8:15am EDT
Overcast
Overcast
 Wind from varies
Wind: varies 7 mph , 11 km/h, Gust: 17 mph , 28 km/h
Temperature: 48°F , 9°C
Wind Chill: 45°F , 7°C
Dew Point: 41°F , 5°C
Humidity: 76%
Barometer: 29.99 inHg , 1015.6 hPa
Clouds: Overcast
Visibility: 10 miles , 16 km
Cloud details: Overcast 3100 ft
2021/04/13 12:15 KGHG 131215Z AUTO VRB06G15KT 10SM OVC031 09/05 A2999 RMK AO2 TSNO
 
KOWD - Norwood, Massachusetts, USA
Distance from station: NNW 24mi, 39km
Updated: Tue, 13-Apr-2021 7:53am EDT
Overcast
Overcast
 Wind from N
Wind: N 8 mph , 13 km/h, Gust: 18 mph , 30 km/h
Temperature: 50°F , 10°C
Wind Chill: 47°F , 8°C
Dew Point: 36°F , 2°C
Humidity: 58%
Barometer: 30.00 inHg , 1015.9 hPa
Clouds: Overcast
Visibility: 10 miles , 16 km
Cloud details: Overcast 3600 ft
2021/04/13 11:53 KOWD 131153Z 36007G16KT 10SM OVC036 10/02 A3000 RMK AO2 SLP160 70001 T01000022 10100 20056 51015
KMQE - East Milton, Massachusetts, USA
Distance from station: NNW 25mi, 40km
Updated: Tue, 13-Apr-2021 7:51am EDT

 Wind from NNE
Wind: NNE 13 mph , 20 km/h, Gust: 30 mph , 48 km/h
Temperature: 45°F , 7°C
Wind Chill: 39°F , 4°C
Dew Point: 36°F , 2°C
Humidity: 71%
Barometer: 29.98 inHg , 1015.2 hPa
2021/04/13 11:51 KMQE 131151Z AUTO 02011G26KT 07/02 A2998 RMK AO1 PK WND 36026/1142 SLP165 70004 T00720017 10072 20033 51015
 
KFMH - Falmouth/Otis Ab, Massachusetts, USA
Distance from station: SE 27mi, 44km
Updated: Tue, 13-Apr-2021 7:45am EDT
Overcast
Overcast
 Wind from N
Wind: N 14 mph , 22 km/h, Gust: 25 mph , 41 km/h
Temperature: 46°F , 8°C
Wind Chill: 40°F , 4°C
Dew Point: 39°F , 4°C
Humidity: 76%
Barometer: 29.96 inHg , 1014.6 hPa
Clouds: Overcast
Visibility: 10 miles , 16 km
Cloud details: Overcast 3100 ft
2021/04/13 11:45 KFMH 131145Z 01012G22KT 10SM OVC031 08/04 A2996
KPVD - Providence/Green, Rhode Island, USA
Distance from station: WSW 29mi, 47km
Updated: Tue, 13-Apr-2021 7:51am EDT
Mostly cloudy
Mostly cloudy
 Wind from N
Wind: N 17 mph , 28 km/h, Gust: 23 mph , 37 km/h
Temperature: 48°F , 9°C
Wind Chill: 42°F , 6°C
Dew Point: 36°F , 2°C
Humidity: 62%
Barometer: 30.00 inHg , 1015.9 hPa
Clouds: Mostly cloudy
Visibility: 10 miles , 16 km
Cloud details: Mostly cloudy 3500 ft
2021/04/13 11:51 KPVD 131151Z 01015G20KT 10SM BKN035 09/02 A3000 RMK AO2 SLP157 T00940022 10094 20056 52014
 
KSFZ - Pawtucket, Rhode Island, USA
Distance from station: W 30mi, 48km
Updated: Tue, 13-Apr-2021 7:56am EDT
Overcast
Overcast
 Wind from NNE
Wind: NNE 14 mph , 22 km/h, Gust: 20 mph , 31 km/h
Temperature: 46°F , 8°C
Wind Chill: 40°F , 4°C
Dew Point: 37°F , 3°C
Humidity: 71%
Barometer: 30.00 inHg , 1015.9 hPa
Clouds: Overcast
Visibility: 10 miles , 16 km
Cloud details: Overcast 3100 ft
2021/04/13 11:56 KSFZ 131156Z AUTO 03012G17KT 10SM OVC031 08/03 A3000 RMK AO2 SLP167 T00780033 10078 20033 51013 $
KUUU - Newport, Rhode Island, USA
Distance from station: SW 31mi, 50km
Updated: Tue, 13-Apr-2021 7:53am EDT
Mostly cloudy
Mostly cloudy
 Wind from NNE
Wind: NNE 13 mph , 20 km/h
Temperature: 46°F , 8°C
Wind Chill: 40°F , 4°C
Dew Point: 36°F , 2°C
Humidity: 66%
Barometer: 29.97 inHg , 1014.9 hPa
Clouds: Mostly cloudy
Visibility: 10 miles , 16 km
Cloud details: Mostly cloudy 3300 ft
2021/04/13 11:53 KUUU 131153Z AUTO 02011KT 10SM BKN033 08/02 A2997 RMK AO2 SLP149 T00780022 10083 20044 51012
 
KOQU - N. Kingston/Quon, Rhode Island, USA
Distance from station: SW 32mi, 52km
Updated: Tue, 13-Apr-2021 7:50am EDT
Mostly cloudy
Mostly cloudy
 Wind from NNE
Wind: NNE 17 mph , 28 km/h
Temperature: 48°F , 9°C
Wind Chill: 42°F , 6°C
Dew Point: 37°F , 3°C
Humidity: 66%
Barometer: 29.98 inHg , 1015.2 hPa
Clouds: Mostly cloudy
Visibility: 10 miles , 16 km
Cloud details: Mostly cloudy 3400 ft
2021/04/13 11:50 KOQU 131150Z 03015KT 10SM BKN034 09/03 A2998
KBOS - Boston, Massachusetts, USA
Distance from station: N 33mi, 54km
Updated: Tue, 13-Apr-2021 7:54am EDT
Few Clouds
Few Clouds
 Wind from N
Wind: N 15 mph , 24 km/h, Gust: 23 mph , 37 km/h
Temperature: 52°F , 11°C
Dew Point: 36°F , 2°C
Humidity: 54%
Barometer: 30.01 inHg , 1016.3 hPa
Clouds: Few Clouds
Visibility: 10 miles , 16 km
Cloud details: Few Clouds 3800 ft
2021/04/13 11:54 KBOS 131154Z 01013G20KT 10SM FEW038 11/02 A3001 RMK AO2 SLP162 T01060022 10106 20067 53014
 
KHYA - Hyannis, Massachusetts, USA
Distance from station: ESE 37mi, 59km
Updated: Tue, 13-Apr-2021 7:56am EDT
Overcast
Overcast
 Wind from N
Wind: N 13 mph , 20 km/h, Gust: 21 mph , 33 km/h
Temperature: 48°F , 9°C
Wind Chill: 43°F , 6°C
Dew Point: 41°F , 5°C
Humidity: 76%
Barometer: 29.94 inHg , 1013.9 hPa
Clouds: Overcast
Visibility: 10 miles , 16 km
Cloud details: Overcast 3200 ft
2021/04/13 11:56 KHYA 131156Z 36011G18KT 10SM OVC032 09/05 A2994 RMK AO2 SLP139 T00890050 10089 20067 51014
KMVY - Marthas Vineyard, Massachusetts, USA
Distance from station: SSE 37mi, 60km
Updated: Tue, 13-Apr-2021 7:53am EDT
Partly cloudy
Partly cloudy
 Wind from NNE
Wind: NNE 18 mph , 30 km/h
Temperature: 48°F , 9°C
Wind Chill: 41°F , 5°C
Dew Point: 39°F , 4°C
Humidity: 71%
Barometer: 29.95 inHg , 1014.2 hPa
Clouds: Partly cloudy
Visibility: 10 miles , 16 km
Cloud details: Partly cloudy 3200 ft
2021/04/13 11:53 KMVY 131153Z 03016KT 10SM SCT032 09/04 A2995 RMK AO2 SLP141 T00890039 10094 20056 53010
 
KPVC - Provincetown, Massachusetts, USA
Distance from station: ENE 38mi, 61km
Updated: Tue, 13-Apr-2021 7:56am EDT
Overcast
Overcast
 
Temperature: 46°F , 8°C
Dew Point: 39°F , 4°C
Humidity: 76%
Clouds: Overcast
Visibility: 10 miles , 16 km
Cloud details: Overcast 3000 ft
2021/04/13 11:56 KPVC 131156Z AUTO 10SM OVC030 08/04 RMK AO2 SLPNO 6//// 7//// T00780044 10078 20061 $
KBED - Bedford, Massachusetts, USA
Distance from station: NNW 44mi, 72km
Updated: Tue, 13-Apr-2021 7:51am EDT
Clear
Clear
 Wind from N
Wind: N 7 mph , 11 km/h
Temperature: 48°F , 9°C
Wind Chill: 45°F , 7°C
Dew Point: 37°F , 3°C
Humidity: 66%
Barometer: 30.01 inHg , 1016.3 hPa
Clouds: Clear
Visibility: 10 miles , 16 km
2021/04/13 11:51 KBED 131151Z 01006KT 10SM CLR 09/03 A3001 RMK AO2 SLP177 70001 T00890028 10089 20022 53015
 
KBVY - Beverly, Massachusetts, USA
Distance from station: 0 48mi, 77km
Updated: Tue, 13-Apr-2021 7:53am EDT
Clear
Clear
 Wind from NNE
Wind: NNE 14 mph , 22 km/h, Gust: 22 mph , 35 km/h
Temperature: 48°F , 9°C
Wind Chill: 42°F , 6°C
Dew Point: 37°F , 3°C
Humidity: 66%
Barometer: 30.01 inHg , 1016.3 hPa
Clouds: Clear
Visibility: 10 miles , 16 km
2021/04/13 11:53 KBVY 131153Z 03012G19KT 10SM CLR 09/03 A3001 RMK AO2 SLP157 70001 T00940028 10094 20033 53015
KCQX - Chatham, Massachusetts, USA
Distance from station: ESE 49mi, 80km
Updated: Tue, 13-Apr-2021 7:52am EDT
Overcast
Overcast
 Wind from N
Wind: N 10 mph , 17 km/h, Gust: 17 mph , 28 km/h
Temperature: 48°F , 9°C
Wind Chill: 44°F , 7°C
Dew Point: 37°F , 3°C
Humidity: 66%
Barometer: 29.95 inHg , 1014.2 hPa
Clouds: Overcast
Visibility: 10 miles , 16 km
Cloud details: Overcast 2900 ft
2021/04/13 11:52 KCQX 131152Z AUTO 01009G15KT 320V040 10SM OVC029 09/03 A2995 RMK AO2 SLP144 T00890033 10089 20061 51009